Forside
METAR-TAF:

METAR-TAF

Lufthavne :

Dupage Airport

West Chicago, Illinois, USA

Breddekreds: 41-53-47N, længdekreds: 088-15-04W, højde: 231 m

Aktuelle vejr

Denne rapport blev lavet for 1 time og 0 minutter siden, kl. 18:52 UTC
Vind 11 kt fra sydsydvest
Temperatur 8°C
Fugtighed 42%
Tryk 1021 hPa
Sigt: 16.1 km
skyfri

METAR: KDPA 221852Z 21011KT 10SM CLR 08/M04 A3016 RMK AO2 SLP218 T00831044

Tid: 13:52 (19:52 UTC)

Vejrudsigter

Denne rapport blev lavet for 2 timer og 22 minutter siden, kl. 17:30 UTC
Foreløbig gælder fra 22 på 18 UTC til 23 på 18 UTC
Vind 13 kt fra sydvest med vindstød på up til 21 kt
Sigt: 10 km
skyfri
Fra 22 på 2300 UTC
Vind 10 kt fra sydvest
Sigt: 10 km
Spredte skyer i en højde af 20000 ft

TAF: KDPA 221730Z 2218/2318 23013G21KT P6SM SKC FM222300 22010KT P6SM SCT200

Vejrobservationer og prognoser fra mere end 4000 lufthavne (METAR og TAF).

De gule og røde prikker repræsenterer de meteorologiske stationer.

Flyt musen over at se navnet på stationen.

Så klik over at se vejr observationer og prognoser.

At skifte det kort: Klik på de grønne knapper med et sort kors for at zoome ind; på den grønne knap med en bindestreg for at zoome ud; eller på de grønne pile for tilstødende kort.


METAR-TAF: